createdAt,value
2018-08-17T00:04:36.323Z,5.17
2018-08-17T00:09:39.842Z,4.90
2018-08-17T00:14:43.122Z,5.47
2018-08-17T00:19:46.376Z,6.23
2018-08-17T00:24:49.380Z,5.87
2018-08-17T00:29:52.597Z,5.63
2018-08-17T00:34:57.944Z,6.10
2018-08-17T00:40:01.191Z,5.17
2018-08-17T00:45:04.957Z,5.73
2018-08-17T00:50:08.228Z,5.50
2018-08-17T00:55:11.478Z,5.40
2018-08-17T01:00:14.718Z,5.43
2018-08-17T01:05:17.972Z,5.90
2018-08-17T01:10:21.338Z,5.87
2018-08-17T01:15:24.610Z,6.37
2018-08-17T01:20:27.857Z,6.30
2018-08-17T01:25:31.166Z,6.27
2018-08-17T01:30:34.490Z,5.87
2018-08-17T01:35:37.735Z,6.40
2018-08-17T01:40:40.990Z,6.43
2018-08-17T01:45:44.240Z,6.57
2018-08-17T01:50:47.486Z,6.77
2018-08-17T01:55:50.759Z,6.73
2018-08-17T02:00:54.039Z,6.80
2018-08-17T02:05:57.297Z,7.40
2018-08-17T02:11:00.557Z,7.43
2018-08-17T02:16:03.919Z,7.73
2018-08-17T02:21:07.159Z,7.57
2018-08-17T02:26:10.422Z,8.10
2018-08-17T02:31:13.705Z,7.17
2018-08-17T02:36:16.984Z,8.57
2018-08-17T02:41:20.237Z,8.00
2018-08-17T02:46:23.490Z,8.20
2018-08-17T02:51:26.754Z,8.03
2018-08-17T02:56:30.010Z,7.60
2018-08-17T03:01:33.262Z,8.37
2018-08-17T03:06:36.515Z,7.83
2018-08-17T03:11:40.010Z,8.37
2018-08-17T03:16:43.275Z,8.27
2018-08-17T03:21:46.542Z,8.17
2018-08-17T03:26:49.790Z,8.07
2018-08-17T03:31:53.042Z,8.97
2018-08-17T03:36:56.286Z,9.17
2018-08-17T03:41:59.542Z,9.00
2018-08-17T03:47:02.810Z,9.70
2018-08-17T03:52:06.130Z,8.40
2018-08-17T03:57:09.370Z,9.23
2018-08-17T04:02:12.609Z,8.87
2018-08-17T04:07:15.869Z,8.63
2018-08-17T04:12:19.112Z,8.93
2018-08-17T04:17:22.342Z,7.97
2018-08-17T04:22:25.598Z,8.00
2018-08-17T04:27:28.860Z,8.33
2018-08-17T04:32:32.109Z,7.93
2018-08-17T04:37:35.370Z,7.43
2018-08-17T04:42:38.617Z,7.07
2018-08-17T04:47:41.870Z,7.57
2018-08-17T04:52:45.127Z,8.03
2018-08-17T04:57:48.463Z,6.93
2018-08-17T05:02:52.250Z,7.37
2018-08-17T05:07:55.494Z,7.10
2018-08-17T05:12:58.774Z,7.53
2018-08-17T05:18:02.026Z,6.77
2018-08-17T05:23:05.326Z,7.80
2018-08-17T05:28:08.589Z,7.13
2018-08-17T05:33:11.850Z,5.77
2018-08-17T05:38:15.121Z,5.63
2018-08-17T05:43:18.371Z,6.10
2018-08-17T05:48:21.615Z,5.80
2018-08-17T05:53:24.859Z,6.20
2018-08-17T05:58:28.126Z,5.70
2018-08-17T06:03:31.361Z,5.33
2018-08-17T06:08:34.586Z,5.30
2018-08-17T06:13:37.887Z,6.00
2018-08-17T06:18:41.212Z,5.63
2018-08-17T06:23:45.643Z,5.97
2018-08-17T06:28:48.894Z,5.83
2018-08-17T06:33:52.281Z,5.20
2018-08-17T06:38:55.556Z,5.40
2018-08-17T06:43:58.841Z,4.80
2018-08-17T06:49:02.094Z,4.70
2018-08-17T06:54:05.828Z,4.40
2018-08-17T06:59:09.319Z,4.67
2018-08-17T07:04:14.711Z,5.10
2018-08-17T07:09:18.116Z,4.40
2018-08-17T07:14:21.283Z,3.83
2018-08-17T07:19:24.543Z,3.83
2018-08-17T07:24:27.806Z,4.10
2018-08-17T07:29:31.065Z,4.62
2018-08-17T07:34:34.333Z,3.70
2018-08-17T07:39:37.609Z,3.37
2018-08-17T07:44:41.292Z,2.70
2018-08-17T07:49:44.626Z,3.17
2018-08-17T07:54:48.019Z,2.00
2018-08-17T07:59:51.281Z,2.62
2018-08-17T08:04:54.546Z,2.37
2018-08-17T08:09:58.314Z,2.50
2018-08-17T08:15:01.589Z,1.67
2018-08-17T08:20:16.469Z,2.47
2018-08-17T08:25:19.716Z,2.10
2018-08-17T08:30:22.970Z,2.15
2018-08-17T08:35:26.317Z,2.00
2018-08-17T08:40:29.714Z,2.45
2018-08-17T08:45:33.011Z,2.30
2018-08-17T08:50:37.339Z,2.47
2018-08-17T08:55:41.490Z,2.20
2018-08-17T09:00:47.123Z,1.77
2018-08-17T09:05:50.622Z,1.80
2018-08-17T09:10:54.410Z,1.87
2018-08-17T09:15:57.944Z,1.52
2018-08-17T09:21:01.256Z,2.00
2018-08-17T09:26:05.208Z,2.10
2018-08-17T09:31:08.737Z,1.82
2018-08-17T09:36:12.211Z,2.00
2018-08-17T09:41:15.552Z,1.80
2018-08-17T09:46:19.147Z,1.65
2018-08-17T09:51:23.771Z,1.30
2018-08-17T09:56:28.539Z,2.15
2018-08-17T10:01:38.488Z,1.50
2018-08-17T10:06:48.638Z,1.80
2018-08-17T10:11:52.839Z,1.70
2018-08-17T10:16:56.845Z,1.20
2018-08-17T10:22:01.642Z,1.55
2018-08-17T10:27:04.582Z,1.90
2018-08-17T10:32:08.107Z,1.60
2018-08-17T10:37:11.483Z,1.80
2018-08-17T10:42:14.911Z,1.20
2018-08-17T10:47:18.359Z,1.72
2018-08-17T10:52:22.763Z,1.45
2018-08-17T10:57:26.100Z,1.60
2018-08-17T11:02:29.397Z,1.60
2018-08-17T11:07:38.599Z,1.52
2018-08-17T11:12:44.050Z,1.25
2018-08-17T11:17:47.327Z,1.50
2018-08-17T11:22:50.687Z,1.70
2018-08-17T11:27:53.890Z,1.62
2018-08-17T11:32:58.435Z,1.70
2018-08-17T11:38:01.810Z,1.87
2018-08-17T11:43:05.480Z,1.67
2018-08-17T11:48:08.828Z,1.67
2018-08-17T11:53:13.459Z,1.75
2018-08-17T11:58:16.707Z,2.00
2018-08-17T12:03:19.990Z,1.55
2018-08-17T12:08:23.363Z,1.67
2018-08-17T12:13:26.745Z,1.40
2018-08-17T12:18:31.363Z,1.57
2018-08-17T12:23:34.627Z,1.60
2018-08-17T12:28:37.890Z,1.45
2018-08-17T12:33:42.018Z,1.57
2018-08-17T12:38:45.296Z,1.70
2018-08-17T12:43:48.562Z,1.45
2018-08-17T12:48:52.609Z,1.60
2018-08-17T12:53:55.860Z,1.37
2018-08-17T12:58:59.106Z,1.60
2018-08-17T13:04:02.393Z,1.60
2018-08-17T13:09:06.694Z,1.80
2018-08-17T13:14:12.354Z,1.62
2018-08-17T13:19:15.337Z,1.72
2018-08-17T13:24:18.613Z,1.80
2018-08-17T13:29:21.921Z,1.50
2018-08-17T13:34:25.178Z,1.70
2018-08-17T13:39:28.454Z,3.27
2018-08-17T13:44:31.726Z,1.30
2018-08-17T13:49:34.978Z,1.98
2018-08-17T13:54:38.396Z,1.75
2018-08-17T13:59:41.900Z,2.00
2018-08-17T14:04:45.857Z,1.95
2018-08-17T14:09:49.435Z,1.80
2018-08-17T14:14:52.971Z,1.75
2018-08-17T14:19:56.388Z,1.60
2018-08-17T14:25:00.307Z,1.90
2018-08-17T14:30:04.849Z,1.72
2018-08-17T14:35:08.794Z,1.62
2018-08-17T14:40:12.144Z,2.00
2018-08-17T14:45:15.394Z,1.77
2018-08-17T14:50:18.692Z,1.70
2018-08-17T14:55:22.774Z,1.67
2018-08-17T15:00:26.995Z,1.77
2018-08-17T15:05:32.430Z,1.80
2018-08-17T15:10:36.703Z,1.80
2018-08-17T15:15:40.297Z,1.60
2018-08-17T15:20:48.459Z,1.50
2018-08-17T15:25:52.544Z,1.85
2018-08-17T15:30:55.957Z,1.80
2018-08-17T15:35:59.213Z,1.70
2018-08-17T15:41:03.092Z,1.60
2018-08-17T15:46:06.452Z,1.80
2018-08-17T15:51:11.930Z,1.82
2018-08-17T15:56:15.304Z,1.77
2018-08-17T16:01:19.202Z,1.50
2018-08-17T16:06:22.515Z,1.82
2018-08-17T16:11:25.775Z,1.80
2018-08-17T16:16:29.101Z,1.50
2018-08-17T16:21:32.650Z,1.67
2018-08-17T16:26:36.208Z,1.62
2018-08-17T16:31:41.870Z,1.90
2018-08-17T16:36:45.180Z,1.50
2018-08-17T16:41:48.560Z,1.52
2018-08-17T16:46:53.026Z,1.52
2018-08-17T16:51:56.329Z,1.70
2018-08-17T16:56:59.615Z,1.70
2018-08-17T17:02:07.067Z,1.80
2018-08-17T17:07:10.402Z,1.65
2018-08-17T17:12:16.144Z,1.50
2018-08-17T17:17:19.550Z,1.67
2018-08-17T17:22:24.297Z,1.70
2018-08-17T17:27:27.575Z,1.60
2018-08-17T17:32:30.847Z,2.20
2018-08-17T17:37:34.102Z,1.87
2018-08-17T17:42:37.382Z,2.20
2018-08-17T17:47:40.654Z,2.05
2018-08-17T17:52:43.921Z,1.87
2018-08-17T17:57:51.919Z,1.80
2018-08-17T18:02:55.184Z,1.90
2018-08-17T18:08:04.260Z,1.85
2018-08-17T18:13:07.674Z,2.22
2018-08-17T18:18:10.844Z,2.17
2018-08-17T18:23:14.243Z,2.70
2018-08-17T18:28:17.553Z,2.30
2018-08-17T18:33:20.834Z,2.00
2018-08-17T18:38:24.120Z,2.13
2018-08-17T18:43:27.429Z,2.73
2018-08-17T18:48:31.182Z,2.70
2018-08-17T18:53:34.455Z,2.60
2018-08-17T18:58:37.731Z,2.60
2018-08-17T19:03:42.448Z,2.50
2018-08-17T19:08:47.705Z,2.27
2018-08-17T19:13:51.122Z,2.17
2018-08-17T19:18:54.400Z,2.13
2018-08-17T19:23:57.650Z,2.30
2018-08-17T19:29:01.544Z,1.90
2018-08-17T19:34:04.896Z,2.23
2018-08-17T19:39:11.188Z,1.73
2018-08-17T19:44:15.895Z,2.27
2018-08-17T19:49:19.252Z,2.40
2018-08-17T19:54:22.828Z,2.30
2018-08-17T19:59:26.271Z,2.30
2018-08-17T20:04:30.134Z,3.17
2018-08-17T20:09:34.074Z,2.37
2018-08-17T20:14:37.422Z,2.70
2018-08-17T20:19:47.829Z,3.33
2018-08-17T20:24:51.138Z,3.57
2018-08-17T20:29:56.244Z,4.80
2018-08-17T20:35:00.014Z,4.70
2018-08-17T20:40:03.320Z,3.87
2018-08-17T20:45:07.832Z,3.77
2018-08-17T20:50:14.275Z,3.53
2018-08-17T20:55:17.902Z,3.10
2018-08-17T21:00:22.002Z,3.50
2018-08-17T21:05:25.278Z,3.60
2018-08-17T21:10:28.644Z,4.00
2018-08-17T21:15:31.926Z,3.20
2018-08-17T21:20:35.195Z,3.03
2018-08-17T21:25:38.971Z,3.03
2018-08-17T21:30:42.223Z,2.80
2018-08-17T21:35:45.500Z,3.03
2018-08-17T21:40:48.762Z,2.60
2018-08-17T21:45:56.244Z,2.90
2018-08-17T21:50:59.491Z,3.07
2018-08-17T21:56:02.763Z,3.20
2018-08-17T22:01:06.338Z,3.20
2018-08-17T22:06:09.878Z,3.30
2018-08-17T22:11:14.135Z,3.63
2018-08-17T22:16:17.395Z,3.47
2018-08-17T22:21:20.672Z,3.27
2018-08-17T22:26:24.873Z,3.17
2018-08-17T22:31:37.314Z,3.33
2018-08-17T22:36:40.593Z,3.30
2018-08-17T22:41:44.090Z,3.13
2018-08-17T22:46:57.322Z,3.27
2018-08-17T22:52:00.982Z,3.10
2018-08-17T22:57:04.266Z,3.13
2018-08-17T23:02:07.919Z,3.30
2018-08-17T23:07:11.165Z,2.93
2018-08-17T23:12:14.414Z,2.97
2018-08-17T23:17:17.655Z,3.00
2018-08-17T23:22:20.905Z,2.83
2018-08-17T23:27:24.188Z,3.37
2018-08-17T23:32:27.462Z,2.90
2018-08-17T23:37:30.731Z,3.53
2018-08-17T23:42:34.063Z,3.10
2018-08-17T23:47:37.350Z,3.10
2018-08-17T23:52:40.630Z,3.00
2018-08-17T23:57:43.914Z,3.40
